createdAt,value
2017-09-11T00:01:25.733Z,56.80
2017-09-11T00:06:34.567Z,56.00
2017-09-11T00:11:29.889Z,56.20
2017-09-11T00:13:57.652Z,56.10
2017-09-11T00:16:25.311Z,56.10
2017-09-11T00:21:20.736Z,56.50
2017-09-11T00:23:48.396Z,56.40
2017-09-11T00:26:16.875Z,56.50
2017-09-11T00:28:44.723Z,56.70
2017-09-11T00:31:12.299Z,56.70
2017-09-11T00:33:39.959Z,56.50
2017-09-11T00:38:37.123Z,56.80
2017-09-11T00:41:04.744Z,56.70
2017-09-11T00:43:32.446Z,56.50
2017-09-11T00:46:00.107Z,56.50
2017-09-11T00:48:27.766Z,56.60
2017-09-11T00:53:23.193Z,56.70
2017-09-11T00:55:50.849Z,56.40
2017-09-11T00:58:18.619Z,56.50
2017-09-11T01:00:46.238Z,56.70
2017-09-11T01:03:13.931Z,56.60
2017-09-11T01:05:41.695Z,56.50
2017-09-11T01:08:09.357Z,56.70
2017-09-11T01:10:37.016Z,56.70
2017-09-11T01:15:32.440Z,56.80
2017-09-11T01:20:40.049Z,56.20
2017-09-11T01:25:35.369Z,56.10
2017-09-11T01:28:03.133Z,55.90
2017-09-11T01:30:30.794Z,56.00
2017-09-11T01:35:27.035Z,56.40
2017-09-11T01:37:54.696Z,56.40
2017-09-11T01:42:50.016Z,56.70
2017-09-11T01:45:17.676Z,56.30
2017-09-11T01:50:13.309Z,56.70
2017-09-11T01:52:40.967Z,56.60
2017-09-11T01:57:36.389Z,56.90
2017-09-11T02:00:04.050Z,56.60
2017-09-11T02:02:31.712Z,56.40
2017-09-11T02:07:28.140Z,56.70
2017-09-11T02:09:55.715Z,56.70
2017-09-11T02:12:23.479Z,56.60
2017-09-11T02:14:51.225Z,56.50
2017-09-11T02:19:46.462Z,56.80
2017-09-11T02:22:14.217Z,56.40
2017-09-11T02:27:09.630Z,56.90
2017-09-11T02:29:37.206Z,56.60
2017-09-11T02:32:04.866Z,56.70
2017-09-11T02:37:00.294Z,56.90
2017-09-11T02:39:27.949Z,56.60
2017-09-11T02:41:55.711Z,56.60
2017-09-11T02:44:23.336Z,56.60
2017-09-11T02:49:30.161Z,56.20
2017-09-11T02:51:57.822Z,56.30
2017-09-11T02:54:25.442Z,55.90
2017-09-11T02:56:53.144Z,56.10
2017-09-11T02:59:20.890Z,56.20
2017-09-11T03:01:48.465Z,56.20
2017-09-11T03:06:43.889Z,56.60
2017-09-11T03:09:11.553Z,56.60
2017-09-11T03:11:39.309Z,56.50
2017-09-11T03:14:06.936Z,56.60
2017-09-11T03:16:34.635Z,56.70
2017-09-11T03:19:02.324Z,56.60
2017-09-11T03:21:29.953Z,56.50
2017-09-11T03:26:26.179Z,56.80
2017-09-11T03:31:21.414Z,56.80
2017-09-11T03:33:49.176Z,56.80
2017-09-11T03:36:16.841Z,56.60
2017-09-11T03:41:12.261Z,56.80
2017-09-11T03:43:40.014Z,56.50
2017-09-11T03:46:07.582Z,56.60
2017-09-11T03:51:14.355Z,56.20
2017-09-11T03:53:42.118Z,56.50
2017-09-11T03:56:09.694Z,56.10
2017-09-11T04:01:05.100Z,56.40
2017-09-11T04:03:32.674Z,56.10
2017-09-11T04:08:28.000Z,56.60
2017-09-11T04:10:55.742Z,56.50
2017-09-11T04:15:51.079Z,56.80
2017-09-11T04:18:18.741Z,56.60
2017-09-11T04:20:46.366Z,56.50
2017-09-11T04:23:14.148Z,56.70
2017-09-11T04:25:41.814Z,56.60
2017-09-11T04:28:09.343Z,56.60
2017-09-11T04:30:37.044Z,56.60
2017-09-11T04:33:04.789Z,56.60
2017-09-11T04:35:32.451Z,56.60
2017-09-11T04:40:28.606Z,56.90
2017-09-11T04:42:56.266Z,56.80
2017-09-11T04:47:51.695Z,58.50
2017-09-11T04:50:19.437Z,58.50
2017-09-11T04:52:47.026Z,58.90
2017-09-11T04:55:15.593Z,58.40
2017-09-11T04:57:43.254Z,57.90
2017-09-11T05:00:11.019Z,57.90
2017-09-11T05:02:38.764Z,57.90
2017-09-11T05:07:34.003Z,58.20
2017-09-11T05:15:08.636Z,57.60
2017-09-11T05:17:36.214Z,57.00
2017-09-11T05:22:31.634Z,57.30
2017-09-11T05:24:59.297Z,57.00
2017-09-11T05:27:27.059Z,57.20
2017-09-11T05:29:54.678Z,57.10
2017-09-11T05:32:23.023Z,57.00
2017-09-11T05:34:50.756Z,57.10
2017-09-11T05:37:18.416Z,57.00
2017-09-11T05:39:46.077Z,57.10
2017-09-11T05:44:41.501Z,56.90
2017-09-11T05:47:09.162Z,57.00
2017-09-11T05:49:37.743Z,57.00
2017-09-11T05:54:33.781Z,56.90
2017-09-11T05:57:02.363Z,56.60
2017-09-11T05:59:30.843Z,56.60
2017-09-11T06:01:58.468Z,56.50
2017-09-11T06:04:26.164Z,56.60
2017-09-11T06:09:22.390Z,56.60
2017-09-11T06:14:18.734Z,56.40
2017-09-11T06:16:46.310Z,56.20
2017-09-11T06:19:14.073Z,56.00
2017-09-11T06:21:41.737Z,55.80
2017-09-11T06:26:37.242Z,55.90
2017-09-11T06:29:04.818Z,55.60
2017-09-11T06:31:32.475Z,55.40
2017-09-11T06:39:07.217Z,54.50
2017-09-11T06:44:02.458Z,54.70
2017-09-11T06:46:30.305Z,54.30
2017-09-11T06:48:57.880Z,54.40
2017-09-11T06:53:53.299Z,54.50
2017-09-11T06:56:20.965Z,54.30
2017-09-11T06:58:48.624Z,54.60
2017-09-11T07:03:44.129Z,54.50
2017-09-11T07:06:11.791Z,55.00
2017-09-11T07:08:39.468Z,54.20
2017-09-11T07:11:07.131Z,54.20
2017-09-11T07:16:16.786Z,53.10
2017-09-11T07:21:12.191Z,53.30
2017-09-11T07:23:39.959Z,53.00
2017-09-11T07:26:07.535Z,52.90
2017-09-11T07:31:02.956Z,52.80
2017-09-11T07:33:30.616Z,52.60
2017-09-11T07:35:59.303Z,52.50
2017-09-11T07:38:27.063Z,52.30
2017-09-11T07:40:54.726Z,52.20
2017-09-11T07:45:50.148Z,52.00
2017-09-11T07:48:17.810Z,51.60
2017-09-11T07:50:45.475Z,51.40
2017-09-11T07:55:40.975Z,51.10
2017-09-11T07:58:08.558Z,50.90
2017-09-11T08:00:37.195Z,51.00
2017-09-11T08:03:04.826Z,50.80
2017-09-11T08:05:32.556Z,50.80
2017-09-11T08:08:00.524Z,51.50
2017-09-11T08:10:28.186Z,50.70
2017-09-11T08:15:23.608Z,50.60
2017-09-11T08:17:51.268Z,50.40
2017-09-11T08:20:18.928Z,50.20
2017-09-11T08:25:15.478Z,50.80
2017-09-11T08:27:43.180Z,49.90
2017-09-11T08:30:10.901Z,49.90
2017-09-11T08:35:06.223Z,49.70
2017-09-11T08:40:13.119Z,49.40
2017-09-11T08:42:40.961Z,49.30
2017-09-11T08:45:08.544Z,48.80
2017-09-11T08:50:05.480Z,48.30
2017-09-11T08:52:33.980Z,48.20
2017-09-11T08:57:29.402Z,48.00
2017-09-11T08:59:57.066Z,48.20
2017-09-11T09:02:24.724Z,48.00
2017-09-11T09:07:20.259Z,47.50
2017-09-11T09:12:15.672Z,47.40
2017-09-11T09:14:43.334Z,47.80
2017-09-11T09:17:11.077Z,47.40
2017-09-11T09:22:07.236Z,47.40
2017-09-11T09:24:34.896Z,47.10
2017-09-11T09:29:30.318Z,46.70
2017-09-11T09:31:57.981Z,46.80
2017-09-11T09:34:26.461Z,46.70
2017-09-11T09:36:54.122Z,46.40
2017-09-11T09:39:21.865Z,46.60
2017-09-11T09:44:17.288Z,46.30
2017-09-11T09:46:44.948Z,46.50
2017-09-11T09:49:12.628Z,46.30
2017-09-11T09:51:40.372Z,46.20
2017-09-11T09:56:35.794Z,46.20
2017-09-11T09:59:03.372Z,46.10
2017-09-11T10:01:31.033Z,45.90
2017-09-11T10:09:05.596Z,45.50
2017-09-11T10:11:33.331Z,46.00
2017-09-11T10:14:00.883Z,45.30
2017-09-11T10:16:28.670Z,45.30
2017-09-11T10:21:23.994Z,45.60
2017-09-11T10:23:51.751Z,45.50
2017-09-11T10:26:19.498Z,45.50
2017-09-11T10:31:15.756Z,45.80
2017-09-11T10:33:43.419Z,46.10
2017-09-11T10:36:11.082Z,46.20
2017-09-11T10:41:06.502Z,46.00
2017-09-11T10:43:34.164Z,46.20
2017-09-11T10:46:02.009Z,46.20
2017-09-11T10:48:29.585Z,46.40
2017-09-11T10:53:25.095Z,46.50
2017-09-11T10:55:52.660Z,46.40
2017-09-11T10:58:20.276Z,46.40
2017-09-11T11:00:48.018Z,46.20
2017-09-11T11:03:15.649Z,46.20
2017-09-11T11:05:43.314Z,46.10
2017-09-11T11:10:39.464Z,46.10
2017-09-11T11:13:07.112Z,46.00
2017-09-11T11:15:34.878Z,46.80
2017-09-11T11:18:02.534Z,46.00
2017-09-11T11:20:30.299Z,46.00
2017-09-11T11:22:57.958Z,46.10
2017-09-11T11:27:53.381Z,46.30
2017-09-11T11:30:21.126Z,46.30
2017-09-11T11:35:29.970Z,46.10
2017-09-11T11:37:57.726Z,46.40
2017-09-11T11:40:25.299Z,46.00
2017-09-11T11:42:52.962Z,45.80
2017-09-11T11:47:48.387Z,46.10
2017-09-11T11:50:16.050Z,46.00
2017-09-11T11:52:43.997Z,46.00
2017-09-11T11:55:11.880Z,46.00
2017-09-11T11:57:39.539Z,46.60
2017-09-11T12:02:34.939Z,46.10
2017-09-11T12:05:02.569Z,46.20
2017-09-11T12:07:30.390Z,46.20
2017-09-11T12:09:58.050Z,46.10
2017-09-11T12:14:53.472Z,46.40
2017-09-11T12:17:21.132Z,46.40
2017-09-11T12:19:48.762Z,46.50
2017-09-11T12:22:16.554Z,46.40
2017-09-11T12:27:11.875Z,46.60
2017-09-11T12:29:39.729Z,46.60
2017-09-11T12:32:07.629Z,46.50
2017-09-11T12:34:35.268Z,46.50
2017-09-11T12:37:03.028Z,46.50
2017-09-11T12:39:30.690Z,46.40
2017-09-11T12:41:58.351Z,46.50
2017-09-11T12:46:53.773Z,46.50
2017-09-11T12:49:21.435Z,46.40
2017-09-11T12:51:49.197Z,46.60
2017-09-11T12:56:56.295Z,46.50
2017-09-11T13:01:51.700Z,46.70
2017-09-11T13:04:19.379Z,46.80
2017-09-11T13:06:47.040Z,46.80
2017-09-11T13:11:42.463Z,47.10
2017-09-11T13:14:10.122Z,47.40
2017-09-11T13:16:37.788Z,47.30
2017-09-11T13:21:34.026Z,47.50
2017-09-11T13:24:01.771Z,47.40
2017-09-11T13:28:57.193Z,47.60
2017-09-11T13:31:25.589Z,47.70
2017-09-11T13:36:21.218Z,47.90
2017-09-11T13:38:48.878Z,47.80
2017-09-11T13:43:45.122Z,47.90
2017-09-11T13:46:12.784Z,47.80
2017-09-11T13:51:08.494Z,47.90
2017-09-11T13:53:36.068Z,48.00
2017-09-11T13:58:31.493Z,48.20
2017-09-11T14:01:00.076Z,48.20
2017-09-11T14:03:29.065Z,47.90
2017-09-11T14:05:56.731Z,48.10
2017-09-11T14:10:52.968Z,48.10
2017-09-11T14:15:59.862Z,47.80
2017-09-11T14:18:27.607Z,48.40
2017-09-11T14:23:22.928Z,47.90
2017-09-11T14:25:50.607Z,48.00
2017-09-11T14:28:18.270Z,48.00
2017-09-11T14:33:13.691Z,49.00
2017-09-11T14:35:41.351Z,48.40
2017-09-11T14:38:09.112Z,48.50
2017-09-11T14:40:36.773Z,48.50
2017-09-11T14:45:32.198Z,48.70
2017-09-11T14:47:59.858Z,48.50
2017-09-11T14:50:27.518Z,48.50
2017-09-11T14:55:23.761Z,48.50
2017-09-11T14:57:52.342Z,48.60
2017-09-11T15:02:47.766Z,48.50
2017-09-11T15:05:15.426Z,48.70
2017-09-11T15:07:44.010Z,48.70
2017-09-11T15:12:39.332Z,48.90
2017-09-11T15:15:07.093Z,49.00
2017-09-11T15:17:34.756Z,49.00
2017-09-11T15:22:30.174Z,49.20
2017-09-11T15:24:57.921Z,49.20
2017-09-11T15:27:25.506Z,49.40
2017-09-11T15:32:20.905Z,49.50
2017-09-11T15:37:27.793Z,49.50
2017-09-11T15:39:55.454Z,49.70
2017-09-11T15:44:51.612Z,49.40
2017-09-11T15:47:19.599Z,49.20
2017-09-11T15:52:14.948Z,49.50
2017-09-11T15:54:43.482Z,48.30
2017-09-11T15:59:38.907Z,48.30
2017-09-11T16:02:06.574Z,48.30
2017-09-11T16:04:34.313Z,48.70
2017-09-11T16:09:29.652Z,47.80
2017-09-11T16:11:57.311Z,47.20
2017-09-11T16:14:25.074Z,47.50
2017-09-11T16:16:52.840Z,48.50
2017-09-11T16:19:20.497Z,49.30
2017-09-11T16:24:15.922Z,49.50
2017-09-11T16:26:43.581Z,50.00
2017-09-11T16:29:11.347Z,49.50
2017-09-11T16:31:39.851Z,49.50
2017-09-11T16:34:07.488Z,50.00
2017-09-11T16:36:35.181Z,50.10
2017-09-11T16:39:02.909Z,50.20
2017-09-11T16:43:58.332Z,50.80
2017-09-11T16:46:25.993Z,50.70
2017-09-11T16:48:53.656Z,51.00
2017-09-11T16:53:49.222Z,51.30
2017-09-11T17:01:24.562Z,51.40
2017-09-11T17:03:52.311Z,51.30
2017-09-11T17:06:20.894Z,51.00
2017-09-11T17:11:16.636Z,51.40
2017-09-11T17:13:44.371Z,51.20
2017-09-11T17:16:12.033Z,51.30
2017-09-11T17:21:07.382Z,52.00
2017-09-11T17:23:35.004Z,52.10
2017-09-11T17:26:02.796Z,52.20
2017-09-11T17:28:30.457Z,52.40
2017-09-11T17:33:25.890Z,52.60
2017-09-11T17:35:53.538Z,52.40
2017-09-11T17:38:22.303Z,53.10
2017-09-11T17:40:49.991Z,53.50
2017-09-11T17:43:17.735Z,53.60
2017-09-11T17:48:13.052Z,53.60
2017-09-11T17:50:40.631Z,53.90
2017-09-11T17:55:36.052Z,53.80
2017-09-11T17:58:03.710Z,53.60
2017-09-11T18:00:31.704Z,53.60
2017-09-11T18:05:27.523Z,53.90
2017-09-11T18:10:35.000Z,53.80
2017-09-11T18:13:03.589Z,53.80
2017-09-11T18:15:31.764Z,53.30
2017-09-11T18:17:59.435Z,53.40
2017-09-11T18:20:27.179Z,53.50
2017-09-11T18:22:54.753Z,53.60
2017-09-11T18:27:51.251Z,53.90
2017-09-11T18:33:00.328Z,54.00
2017-09-11T18:35:28.661Z,53.80
2017-09-11T18:40:37.645Z,53.80
2017-09-11T18:43:05.223Z,53.70
2017-09-11T18:45:32.864Z,53.20
2017-09-11T18:48:00.649Z,53.40
2017-09-11T18:52:56.056Z,53.70
2017-09-11T18:55:23.729Z,53.70
2017-09-11T18:57:51.370Z,54.00
2017-09-11T19:00:19.050Z,54.10
2017-09-11T19:02:46.814Z,54.10
2017-09-11T19:05:15.070Z,54.30
2017-09-11T19:07:42.663Z,54.30
2017-09-11T19:10:10.495Z,54.50
2017-09-11T19:12:38.068Z,54.40
2017-09-11T19:15:06.181Z,54.50
2017-09-11T19:17:33.930Z,54.40
2017-09-11T19:20:01.537Z,54.50
2017-09-11T19:22:29.306Z,54.40
2017-09-11T19:24:57.069Z,54.50
2017-09-11T19:27:24.648Z,54.50
2017-09-11T19:29:52.308Z,54.60
2017-09-11T19:34:47.735Z,54.60
2017-09-11T19:37:15.392Z,54.50
2017-09-11T19:39:43.141Z,54.50
2017-09-11T19:42:11.428Z,54.60
2017-09-11T19:44:39.175Z,54.60
2017-09-11T19:49:45.979Z,54.60
2017-09-11T19:52:13.745Z,54.20
2017-09-11T19:54:41.488Z,54.30
2017-09-11T19:57:09.066Z,54.20
2017-09-11T20:02:04.489Z,54.50
2017-09-11T20:04:32.233Z,54.40
2017-09-11T20:07:00.000Z,54.30
2017-09-11T20:09:27.574Z,54.30
2017-09-11T20:14:22.997Z,54.80
2017-09-11T20:16:50.739Z,54.60
2017-09-11T20:24:21.933Z,47.70
2017-09-11T20:26:49.632Z,49.10
2017-09-11T20:31:45.016Z,50.90
2017-09-11T20:34:12.761Z,51.10
2017-09-11T20:40:18.942Z,66.20
2017-09-11T20:42:46.524Z,51.40
2017-09-11T20:47:41.944Z,53.70
2017-09-11T20:50:09.604Z,54.40
2017-09-11T20:52:37.269Z,54.80
2017-09-11T20:57:32.774Z,55.80
2017-09-11T21:00:00.434Z,56.10
2017-09-11T21:02:28.196Z,56.10
2017-09-11T21:04:55.773Z,56.40
2017-09-11T21:15:06.772Z,57.00
2017-09-11T21:17:35.148Z,57.10
2017-09-11T21:20:03.391Z,56.80
2017-09-11T21:22:31.920Z,57.00
2017-09-11T21:25:00.407Z,56.90
2017-09-11T21:27:28.892Z,56.90
2017-09-11T21:29:56.624Z,57.00
2017-09-11T21:32:24.287Z,56.90
2017-09-11T21:37:20.651Z,57.00
2017-09-11T21:44:55.284Z,56.90
2017-09-11T21:47:23.047Z,57.00
2017-09-11T21:49:50.625Z,56.50
2017-09-11T21:52:18.370Z,57.30
2017-09-11T21:57:13.712Z,57.00
2017-09-11T21:59:41.369Z,56.80
2017-09-11T22:02:09.132Z,57.00
2017-09-11T22:04:36.794Z,57.00
2017-09-11T22:09:32.220Z,57.00
2017-09-11T22:11:59.961Z,57.00
2017-09-11T22:14:27.506Z,56.90
2017-09-11T22:16:55.195Z,56.90
2017-09-11T22:19:22.860Z,56.90
2017-09-11T22:21:50.491Z,56.80
2017-09-11T22:24:18.280Z,56.90
2017-09-11T22:29:13.600Z,57.00
2017-09-11T22:31:41.365Z,56.90
2017-09-11T22:34:09.030Z,57.00
2017-09-11T22:39:04.449Z,57.10
2017-09-11T22:41:32.107Z,57.10
2017-09-11T22:43:59.769Z,57.20
2017-09-11T22:48:55.192Z,57.00
2017-09-11T22:51:22.935Z,57.00
2017-09-11T22:53:50.619Z,57.00
2017-09-11T22:56:18.276Z,57.00
2017-09-11T23:01:13.698Z,57.00
2017-09-11T23:03:41.853Z,57.00
2017-09-11T23:06:09.513Z,57.00
2017-09-11T23:08:37.277Z,57.00
2017-09-11T23:13:44.170Z,56.90
2017-09-11T23:16:11.744Z,57.00
2017-09-11T23:21:07.252Z,56.50
2017-09-11T23:23:34.829Z,56.70
2017-09-11T23:26:02.574Z,56.90
2017-09-11T23:30:58.116Z,56.70
2017-09-11T23:33:25.775Z,56.80
2017-09-11T23:38:21.201Z,56.70
2017-09-11T23:40:48.945Z,57.00
2017-09-11T23:43:16.624Z,57.10
2017-09-11T23:45:44.283Z,57.10
2017-09-11T23:50:39.709Z,56.90
2017-09-11T23:53:07.370Z,57.10
2017-09-11T23:55:35.029Z,57.10
